createdAt,value
2019-02-04T00:00:36.100Z,-0.30
2019-02-04T00:03:03.725Z,-0.40
2019-02-04T00:05:31.343Z,-0.40
2019-02-04T00:07:59.703Z,-0.20
2019-02-04T00:10:27.339Z,-0.20
2019-02-04T00:12:54.929Z,-0.10
2019-02-04T00:15:22.549Z,-0.20
2019-02-04T00:17:50.900Z,-0.30
2019-02-04T00:20:19.244Z,-0.40
2019-02-04T00:22:46.818Z,-0.40
2019-02-04T00:25:14.433Z,-0.40
2019-02-04T00:27:42.028Z,-0.50
2019-02-04T00:30:12.307Z,-0.60
2019-02-04T00:32:40.268Z,-0.60
2019-02-04T00:35:07.855Z,-0.70
2019-02-04T00:37:35.440Z,-0.80
2019-02-04T00:40:03.062Z,-0.80
2019-02-04T00:42:30.643Z,-0.90
2019-02-04T00:44:58.241Z,-0.70
2019-02-04T00:47:25.854Z,-0.70
2019-02-04T00:49:53.443Z,-0.80
2019-02-04T00:52:21.036Z,-0.60
2019-02-04T00:54:49.485Z,-0.70
2019-02-04T00:57:17.069Z,-0.70
2019-02-04T00:59:44.651Z,-0.80
2019-02-04T01:02:13.048Z,-0.80
2019-02-04T01:04:40.635Z,-0.80
2019-02-04T01:07:08.211Z,-0.60
2019-02-04T01:09:35.830Z,-0.50
2019-02-04T01:12:04.187Z,-0.60
2019-02-04T01:14:31.767Z,-0.60
2019-02-04T01:17:03.375Z,-0.70
2019-02-04T01:19:27.781Z,-0.70
2019-02-04T01:21:55.378Z,-0.60
2019-02-04T01:24:23.759Z,-0.70
2019-02-04T01:26:51.450Z,-0.70
2019-02-04T01:29:18.937Z,-0.80
2019-02-04T01:31:46.894Z,-0.90
2019-02-04T01:34:14.481Z,-0.90
2019-02-04T01:36:42.323Z,-1.00
2019-02-04T01:39:09.973Z,-1.10
2019-02-04T01:41:37.576Z,-1.00
2019-02-04T01:44:05.171Z,-1.00
2019-02-04T01:46:32.802Z,-1.10
2019-02-04T01:49:00.401Z,-1.00
2019-02-04T01:51:27.985Z,-0.90
2019-02-04T01:53:55.598Z,-0.70
2019-02-04T01:56:23.960Z,-0.90
2019-02-04T01:58:51.533Z,-0.90
2019-02-04T02:01:19.314Z,-1.00
2019-02-04T02:03:46.743Z,-1.10
2019-02-04T02:06:14.329Z,-1.10
2019-02-04T02:08:42.711Z,-1.30
2019-02-04T02:11:11.064Z,-1.30
2019-02-04T02:13:38.656Z,-1.30
2019-02-04T02:16:07.044Z,-1.30
2019-02-04T02:18:35.398Z,-1.30
2019-02-04T02:21:02.980Z,-1.30
2019-02-04T02:23:32.256Z,-1.40
2019-02-04T02:25:59.836Z,-1.40
2019-02-04T02:28:28.223Z,-1.40
2019-02-04T02:30:55.822Z,-1.40
2019-02-04T02:33:23.417Z,-1.20
2019-02-04T02:35:51.015Z,-1.10
2019-02-04T02:38:19.391Z,-0.80
2019-02-04T02:40:47.736Z,-0.90
2019-02-04T02:43:15.315Z,-0.90
2019-02-04T02:45:43.287Z,-1.00
2019-02-04T02:48:12.309Z,-1.10
2019-02-04T02:50:39.888Z,-1.20
2019-02-04T02:53:07.502Z,-1.20
2019-02-04T02:55:35.082Z,-1.30
2019-02-04T02:58:03.436Z,-1.40
2019-02-04T03:00:31.046Z,-1.40
2019-02-04T03:02:58.640Z,-1.40
2019-02-04T03:05:26.500Z,-1.30
2019-02-04T03:07:54.495Z,-1.30
2019-02-04T03:10:22.073Z,-1.40
2019-02-04T03:12:50.432Z,-1.40
2019-02-04T03:15:18.052Z,-1.40
2019-02-04T03:17:51.858Z,-1.20
2019-02-04T03:20:13.217Z,-1.10
2019-02-04T03:22:40.823Z,-1.10
2019-02-04T03:25:08.413Z,-1.30
2019-02-04T03:27:36.007Z,-1.20
2019-02-04T03:30:03.854Z,-1.30
2019-02-04T03:32:31.433Z,-1.40
2019-02-04T03:34:59.007Z,-1.50
2019-02-04T03:37:26.640Z,-1.60
2019-02-04T03:39:54.230Z,-1.60
2019-02-04T03:42:21.812Z,-1.70
2019-02-04T03:44:50.196Z,-1.70
2019-02-04T03:47:18.544Z,-1.70
2019-02-04T03:49:46.141Z,-1.70
2019-02-04T03:52:14.871Z,-1.60
2019-02-04T03:54:42.453Z,-1.60
2019-02-04T03:57:10.044Z,-1.50
2019-02-04T03:59:38.426Z,-1.60
2019-02-04T04:02:06.784Z,-1.60
2019-02-04T04:04:34.363Z,-1.60
2019-02-04T04:07:02.750Z,-1.70
2019-02-04T04:09:31.094Z,-1.70
2019-02-04T04:11:58.693Z,-1.70
2019-02-04T04:14:26.347Z,-1.70
2019-02-04T04:16:54.701Z,-1.60
2019-02-04T04:19:22.285Z,-1.60
2019-02-04T04:21:50.676Z,-1.50
2019-02-04T04:24:19.932Z,-1.40
2019-02-04T04:26:47.512Z,-1.50
2019-02-04T04:29:16.194Z,-1.30
2019-02-04T04:31:43.774Z,-1.30
2019-02-04T04:34:12.128Z,-1.30
2019-02-04T04:36:39.741Z,-1.30
2019-02-04T04:39:07.330Z,-1.30
2019-02-04T04:41:34.923Z,-1.30
2019-02-04T04:44:02.530Z,-1.40
2019-02-04T04:46:30.121Z,-1.40
2019-02-04T04:48:57.720Z,-1.30
2019-02-04T04:51:25.342Z,-1.20
2019-02-04T04:53:52.926Z,-1.30
2019-02-04T04:56:20.514Z,-1.30
2019-02-04T04:58:49.289Z,-1.30
2019-02-04T05:01:16.881Z,-1.40
2019-02-04T05:03:44.471Z,-1.40
2019-02-04T05:06:12.102Z,-1.40
2019-02-04T05:08:40.473Z,-1.40
2019-02-04T05:11:08.811Z,-1.40
2019-02-04T05:13:36.432Z,-1.50
2019-02-04T05:16:04.137Z,-1.40
2019-02-04T05:18:38.081Z,-1.50
2019-02-04T05:20:59.227Z,-1.50
2019-02-04T05:23:26.819Z,-1.40
2019-02-04T05:25:54.408Z,-1.50
2019-02-04T05:28:22.025Z,-1.40
2019-02-04T05:30:49.613Z,-1.40
2019-02-04T05:33:17.201Z,-1.40
2019-02-04T05:35:45.586Z,-1.40
2019-02-04T05:38:13.953Z,-1.40
2019-02-04T05:40:41.539Z,-1.40
2019-02-04T05:43:10.810Z,-1.40
2019-02-04T05:45:38.387Z,-1.40
2019-02-04T05:48:06.742Z,-1.40
2019-02-04T05:50:34.378Z,-1.40
2019-02-04T05:53:01.968Z,-1.40
2019-02-04T05:55:30.638Z,-1.40
2019-02-04T05:57:57.947Z,-1.20
2019-02-04T06:00:28.388Z,-1.20
2019-02-04T06:02:55.982Z,-1.00
2019-02-04T06:05:23.981Z,-0.90
2019-02-04T06:07:51.561Z,-0.90
2019-02-04T06:10:19.148Z,-0.90
2019-02-04T06:12:46.770Z,-1.00
2019-02-04T06:15:14.359Z,-1.00
2019-02-04T06:17:42.714Z,-1.00
2019-02-04T06:20:10.336Z,-1.10
2019-02-04T06:22:37.921Z,-1.10
2019-02-04T06:25:05.510Z,-1.10
2019-02-04T06:27:34.346Z,-1.10
2019-02-04T06:30:01.952Z,-1.10
2019-02-04T06:32:29.544Z,-1.10
2019-02-04T06:34:57.166Z,-1.10
2019-02-04T06:37:24.751Z,-1.10
2019-02-04T06:39:53.108Z,-1.00
2019-02-04T06:42:20.734Z,-1.00
2019-02-04T06:44:48.326Z,-0.80
2019-02-04T06:47:15.913Z,-0.60
2019-02-04T06:49:43.545Z,-0.60
2019-02-04T06:52:11.165Z,-0.70
2019-02-04T06:54:39.491Z,-0.70
2019-02-04T06:57:07.107Z,-0.70
2019-02-04T06:59:34.700Z,-0.50
2019-02-04T07:02:02.293Z,-0.40
2019-02-04T07:04:29.914Z,-0.40
2019-02-04T07:06:57.519Z,-0.50
2019-02-04T07:09:25.107Z,-0.60
2019-02-04T07:11:53.534Z,-0.80
2019-02-04T07:14:21.131Z,-0.80
2019-02-04T07:16:49.525Z,-0.90
2019-02-04T07:19:24.415Z,-0.90
2019-02-04T07:21:44.798Z,-1.00
2019-02-04T07:24:12.370Z,-1.00
2019-02-04T07:26:39.985Z,-1.00
2019-02-04T07:29:07.571Z,-1.00
2019-02-04T07:31:35.157Z,-1.00
2019-02-04T07:34:02.818Z,-1.00
2019-02-04T07:36:30.425Z,-1.00
2019-02-04T07:38:58.788Z,-0.70
2019-02-04T07:41:26.419Z,-0.70
2019-02-04T07:43:54.020Z,-0.70
2019-02-04T07:46:24.948Z,-0.80
2019-02-04T07:48:50.964Z,-0.80
2019-02-04T07:51:18.547Z,-0.80
2019-02-04T07:53:46.913Z,-0.70
2019-02-04T07:56:15.229Z,-0.80
2019-02-04T07:58:42.826Z,-0.60
2019-02-04T08:01:10.403Z,-0.40
2019-02-04T08:03:38.034Z,-0.50
2019-02-04T08:06:06.022Z,-0.60
2019-02-04T08:08:33.604Z,-0.60
2019-02-04T08:11:01.677Z,-0.70
2019-02-04T08:13:29.270Z,-0.70
2019-02-04T08:15:56.894Z,-0.70
2019-02-04T08:18:24.543Z,-0.60
2019-02-04T08:20:52.129Z,-0.40
2019-02-04T08:23:19.724Z,-0.20
2019-02-04T08:25:48.281Z,-0.20
2019-02-04T08:28:16.644Z,-0.30
2019-02-04T08:30:44.224Z,-0.40
2019-02-04T08:33:12.621Z,-0.40
2019-02-04T08:35:40.972Z,-0.40
2019-02-04T08:38:08.565Z,-0.40
2019-02-04T08:40:37.004Z,-0.30
2019-02-04T08:43:04.549Z,-0.30
2019-02-04T08:45:32.139Z,-0.10
2019-02-04T08:47:59.776Z,0.10
2019-02-04T08:50:27.368Z,0.10
2019-02-04T08:52:54.942Z,0.00
2019-02-04T08:55:23.489Z,0.10
2019-02-04T08:57:50.978Z,0.10
2019-02-04T09:00:18.606Z,0.10
2019-02-04T09:02:47.336Z,0.10
2019-02-04T09:05:15.985Z,0.00
2019-02-04T09:07:43.574Z,0.00
2019-02-04T09:10:11.208Z,0.00
2019-02-04T09:12:38.788Z,0.00
2019-02-04T09:15:08.934Z,0.00
2019-02-04T09:17:37.332Z,0.20
2019-02-04T09:20:10.302Z,0.10
2019-02-04T09:22:32.490Z,0.20
2019-02-04T09:25:00.243Z,0.30
2019-02-04T09:27:27.741Z,0.30
2019-02-04T09:29:55.329Z,0.30
2019-02-04T09:32:24.192Z,0.60
2019-02-04T09:34:51.772Z,0.50
2019-02-04T09:37:20.414Z,1.00
2019-02-04T09:39:48.063Z,1.00
2019-02-04T09:42:15.644Z,1.10
2019-02-04T09:44:43.247Z,1.00
2019-02-04T09:47:11.633Z,1.00
2019-02-04T09:49:39.985Z,1.00
2019-02-04T09:52:07.568Z,1.00
2019-02-04T09:54:35.967Z,1.00
2019-02-04T09:57:03.552Z,1.00
2019-02-04T09:59:31.134Z,1.00
2019-02-04T10:01:59.423Z,1.00
2019-02-04T10:04:27.013Z,1.00
2019-02-04T10:06:55.549Z,1.20
2019-02-04T10:09:22.989Z,1.10
2019-02-04T10:11:50.573Z,1.20
2019-02-04T10:14:18.163Z,1.20
2019-02-04T10:16:45.825Z,1.30
2019-02-04T10:19:13.426Z,1.40
2019-02-04T10:21:40.990Z,1.40
2019-02-04T10:24:09.439Z,1.50
2019-02-04T10:26:37.812Z,1.70
2019-02-04T10:29:05.387Z,1.60
2019-02-04T10:31:33.826Z,2.00
2019-02-04T10:34:02.149Z,2.10
2019-02-04T10:36:29.699Z,2.10
2019-02-04T10:38:57.345Z,2.20
2019-02-04T10:41:27.638Z,2.30
2019-02-04T10:43:55.259Z,2.50
2019-02-04T10:46:22.874Z,2.50
2019-02-04T10:48:50.461Z,2.60
2019-02-04T10:51:18.054Z,2.80
2019-02-04T10:53:45.648Z,2.90
2019-02-04T10:56:16.247Z,3.00
2019-02-04T10:58:40.991Z,3.20
2019-02-04T11:01:09.470Z,3.50
2019-02-04T11:03:37.338Z,3.70
2019-02-04T11:06:04.959Z,3.70
2019-02-04T11:08:32.987Z,3.80
2019-02-04T11:11:00.434Z,3.80
2019-02-04T11:13:28.744Z,3.80
2019-02-04T11:15:56.380Z,3.80
2019-02-04T11:18:23.927Z,3.90
2019-02-04T11:20:58.250Z,3.90
2019-02-04T11:23:19.160Z,4.00
2019-02-04T11:25:46.848Z,4.10
2019-02-04T11:28:14.342Z,4.40
2019-02-04T11:30:51.801Z,4.50
2019-02-04T11:33:19.441Z,4.50
2019-02-04T11:35:47.740Z,4.90
2019-02-04T11:38:15.993Z,4.90
2019-02-04T11:40:45.773Z,4.90
2019-02-04T11:43:11.191Z,5.10
2019-02-04T11:45:40.379Z,5.20
2019-02-04T11:48:10.356Z,5.20
2019-02-04T11:50:37.930Z,5.30
2019-02-04T11:53:06.068Z,5.20
2019-02-04T11:55:33.703Z,5.20
2019-02-04T11:58:01.282Z,5.30
2019-02-04T12:00:31.881Z,5.30
2019-02-04T12:03:00.237Z,5.30
2019-02-04T12:05:27.816Z,5.30
2019-02-04T12:07:57.091Z,5.30
2019-02-04T12:10:30.647Z,5.20
2019-02-04T12:12:58.591Z,5.20
2019-02-04T12:15:27.038Z,5.30
2019-02-04T12:17:54.617Z,5.20
2019-02-04T12:20:22.212Z,5.30
2019-02-04T12:22:49.877Z,5.20
2019-02-04T12:25:26.356Z,5.20
2019-02-04T12:27:53.978Z,5.20
2019-02-04T12:30:24.360Z,5.30
2019-02-04T12:32:51.938Z,5.30
2019-02-04T12:35:19.562Z,5.30
2019-02-04T12:37:47.142Z,5.40
2019-02-04T12:40:14.722Z,5.60
2019-02-04T12:42:42.388Z,5.60
2019-02-04T12:45:37.136Z,5.70
2019-02-04T12:48:04.754Z,5.70
2019-02-04T12:50:32.356Z,5.70
2019-02-04T12:53:00.705Z,5.80
2019-02-04T12:55:28.326Z,5.80
2019-02-04T12:57:55.906Z,5.80
2019-02-04T13:00:23.483Z,5.80
2019-02-04T13:02:51.099Z,5.80
2019-02-04T13:05:18.678Z,5.90
2019-02-04T13:07:46.258Z,5.90
2019-02-04T13:10:14.244Z,5.90
2019-02-04T13:12:41.823Z,6.00
2019-02-04T13:15:10.167Z,6.10
2019-02-04T13:17:37.819Z,6.10
2019-02-04T13:20:05.403Z,6.20
2019-02-04T13:22:32.986Z,6.20
2019-02-04T13:25:00.613Z,6.20
2019-02-04T13:27:28.189Z,6.40
2019-02-04T13:29:55.766Z,6.50
2019-02-04T13:32:23.396Z,6.50
2019-02-04T13:34:50.972Z,6.60
2019-02-04T13:37:18.557Z,6.60
2019-02-04T13:39:46.181Z,6.60
2019-02-04T13:42:13.760Z,6.60
2019-02-04T13:44:41.335Z,6.50
2019-02-04T13:47:08.981Z,6.50
2019-02-04T13:49:36.562Z,6.50
2019-02-04T13:52:04.139Z,6.40
2019-02-04T13:54:32.530Z,6.40
2019-02-04T13:57:03.587Z,6.40
2019-02-04T13:59:28.451Z,6.30
2019-02-04T14:01:56.481Z,6.40
2019-02-04T14:04:24.063Z,6.50
2019-02-04T14:06:51.633Z,6.50
2019-02-04T14:09:20.328Z,6.50
2019-02-04T14:11:48.408Z,6.50
2019-02-04T14:14:16.759Z,6.70
2019-02-04T14:16:44.385Z,6.80
2019-02-04T14:19:11.965Z,6.70
2019-02-04T14:21:39.547Z,6.70
2019-02-04T14:24:07.174Z,6.60
2019-02-04T14:26:34.754Z,6.60
2019-02-04T14:29:02.325Z,6.50
2019-02-04T14:31:30.007Z,6.50
2019-02-04T14:33:58.151Z,6.40
2019-02-04T14:36:25.947Z,6.40
2019-02-04T14:38:53.578Z,6.50
2019-02-04T14:41:21.796Z,6.40
2019-02-04T14:43:49.612Z,6.30
2019-02-04T14:46:20.247Z,6.30
2019-02-04T14:48:59.844Z,6.20
2019-02-04T14:51:36.720Z,6.10
2019-02-04T14:54:36.493Z,6.10
2019-02-04T14:57:08.393Z,6.00
2019-02-04T14:59:35.976Z,6.00
2019-02-04T15:02:25.574Z,5.90
2019-02-04T15:05:11.285Z,5.90
2019-02-04T15:07:50.557Z,5.90
2019-02-04T15:10:18.149Z,6.00
2019-02-04T15:13:22.970Z,6.00
2019-02-04T15:15:54.077Z,6.00
2019-02-04T15:18:21.667Z,6.00
2019-02-04T15:21:04.155Z,6.00
2019-02-04T15:23:37.282Z,5.90
2019-02-04T15:26:04.832Z,5.90
2019-02-04T15:28:41.682Z,6.00
2019-02-04T15:31:20.951Z,6.00
2019-02-04T15:33:49.373Z,6.10
2019-02-04T15:36:34.696Z,6.10
2019-02-04T15:39:03.484Z,6.10
2019-02-04T15:41:52.382Z,6.00
2019-02-04T15:44:41.531Z,5.90
2019-02-04T15:47:27.401Z,5.80
2019-02-04T15:50:07.075Z,5.70
2019-02-04T15:52:45.112Z,5.60
2019-02-04T15:55:03.013Z,5.60
2019-02-04T15:57:31.412Z,5.90
2019-02-04T15:59:58.991Z,5.90
2019-02-04T16:02:26.571Z,5.90
2019-02-04T16:04:54.208Z,5.80
2019-02-04T16:07:23.811Z,5.70
2019-02-04T16:09:49.390Z,5.60
2019-02-04T16:12:17.451Z,5.50
2019-02-04T16:14:45.043Z,5.40
2019-02-04T16:17:13.387Z,5.40
2019-02-04T16:19:41.039Z,5.40
2019-02-04T16:22:08.622Z,5.40
2019-02-04T16:24:36.208Z,5.40
2019-02-04T16:27:04.619Z,5.20
2019-02-04T16:29:32.205Z,5.20
2019-02-04T16:31:59.782Z,5.20
2019-02-04T16:34:27.467Z,5.20
2019-02-04T16:36:55.911Z,5.10
2019-02-04T16:39:23.494Z,5.10
2019-02-04T16:41:51.776Z,5.10
2019-02-04T16:44:19.715Z,5.10
2019-02-04T16:46:47.295Z,5.00
2019-02-04T16:49:14.941Z,5.00
2019-02-04T16:51:42.511Z,4.90
2019-02-04T16:54:10.350Z,5.10
2019-02-04T16:56:39.745Z,5.20
2019-02-04T16:59:07.329Z,5.20
2019-02-04T17:01:34.947Z,5.40
2019-02-04T17:04:02.570Z,5.60
2019-02-04T17:06:30.729Z,5.50
2019-02-04T17:08:58.312Z,5.40
2019-02-04T17:11:26.388Z,5.40
2019-02-04T17:14:02.120Z,5.30
2019-02-04T17:16:22.359Z,5.30
2019-02-04T17:18:50.748Z,5.60
2019-02-04T17:21:19.101Z,5.60
2019-02-04T17:23:46.711Z,5.60
2019-02-04T17:26:14.356Z,5.50
2019-02-04T17:28:42.687Z,5.30
2019-02-04T17:31:10.283Z,5.30
2019-02-04T17:33:39.565Z,5.10
2019-02-04T17:36:07.142Z,5.10
2019-02-04T17:38:35.500Z,4.90
2019-02-04T17:41:03.128Z,4.90
2019-02-04T17:43:30.713Z,4.90
2019-02-04T17:45:58.396Z,5.00
2019-02-04T17:48:26.674Z,5.00
2019-02-04T17:50:54.276Z,5.20
2019-02-04T17:53:33.646Z,5.30
2019-02-04T17:55:49.562Z,5.50
2019-02-04T17:58:17.144Z,5.40
2019-02-04T18:00:47.430Z,5.30
2019-02-04T18:03:15.070Z,5.20
2019-02-04T18:05:42.644Z,5.10
2019-02-04T18:08:10.223Z,5.20
2019-02-04T18:10:37.847Z,5.20
2019-02-04T18:13:05.457Z,5.10
2019-02-04T18:15:33.041Z,5.10
2019-02-04T18:18:01.451Z,5.00
2019-02-04T18:20:29.020Z,4.90
2019-02-04T18:22:56.605Z,4.80
2019-02-04T18:25:24.788Z,4.70
2019-02-04T18:27:52.365Z,4.60
2019-02-04T18:30:19.948Z,4.50
2019-02-04T18:32:47.648Z,4.50
2019-02-04T18:35:15.250Z,4.40
2019-02-04T18:37:42.796Z,4.30
2019-02-04T18:40:13.148Z,4.30
2019-02-04T18:42:40.733Z,4.20
2019-02-04T18:45:09.690Z,4.30
2019-02-04T18:47:37.492Z,4.30
2019-02-04T18:50:05.080Z,4.30
2019-02-04T18:52:32.666Z,4.20
2019-02-04T18:55:00.671Z,4.20
2019-02-04T18:57:28.162Z,4.10
2019-02-04T18:59:55.745Z,4.20
2019-02-04T19:02:23.704Z,4.20
2019-02-04T19:04:51.296Z,4.20
2019-02-04T19:07:18.887Z,4.10
2019-02-04T19:09:47.274Z,4.20
2019-02-04T19:12:15.183Z,4.20
2019-02-04T19:14:42.765Z,4.40
2019-02-04T19:17:10.419Z,4.40
2019-02-04T19:19:38.033Z,4.40
2019-02-04T19:22:06.409Z,4.20
2019-02-04T19:24:34.259Z,4.20
2019-02-04T19:27:02.624Z,4.30
2019-02-04T19:29:30.203Z,4.30
2019-02-04T19:31:58.613Z,4.30
2019-02-04T19:34:26.206Z,4.30
2019-02-04T19:36:53.787Z,4.20
2019-02-04T19:39:21.894Z,4.20
2019-02-04T19:41:50.239Z,4.20
2019-02-04T19:44:17.820Z,4.20
2019-02-04T19:46:45.883Z,4.20
2019-02-04T19:49:13.456Z,4.20
2019-02-04T19:51:41.803Z,4.20
2019-02-04T19:54:20.945Z,4.10
2019-02-04T19:56:36.999Z,4.20
2019-02-04T19:59:04.596Z,4.20
2019-02-04T20:01:32.217Z,4.20
2019-02-04T20:04:00.145Z,4.20
2019-02-04T20:06:27.696Z,4.20
2019-02-04T20:08:55.305Z,4.20
2019-02-04T20:11:23.201Z,4.30
2019-02-04T20:13:50.819Z,4.30
2019-02-04T20:16:18.426Z,4.30
2019-02-04T20:18:46.014Z,4.30
2019-02-04T20:21:13.606Z,4.40
2019-02-04T20:23:41.234Z,4.50
2019-02-04T20:26:08.829Z,4.60
2019-02-04T20:28:37.176Z,4.80
2019-02-04T20:31:04.807Z,4.80
2019-02-04T20:33:32.384Z,4.80
2019-02-04T20:35:59.964Z,4.80
2019-02-04T20:38:27.596Z,4.80
2019-02-04T20:40:55.172Z,4.70
2019-02-04T20:43:22.747Z,4.80
2019-02-04T20:45:50.819Z,4.80
2019-02-04T20:48:18.414Z,4.90
2019-02-04T20:50:46.883Z,5.00
2019-02-04T20:53:14.390Z,5.00
2019-02-04T20:55:41.971Z,4.90
2019-02-04T20:58:09.548Z,4.90
2019-02-04T21:00:37.211Z,4.80
2019-02-04T21:03:04.790Z,4.90
2019-02-04T21:05:33.142Z,5.20
2019-02-04T21:08:00.826Z,5.10
2019-02-04T21:10:28.397Z,5.10
2019-02-04T21:12:56.753Z,4.90
2019-02-04T21:15:24.733Z,4.80
2019-02-04T21:17:52.314Z,4.70
2019-02-04T21:20:26.180Z,4.70
2019-02-04T21:22:53.818Z,4.70
2019-02-04T21:25:21.402Z,4.80
2019-02-04T21:27:49.001Z,4.90
2019-02-04T21:30:17.401Z,4.80
2019-02-04T21:32:44.985Z,4.80
2019-02-04T21:35:12.559Z,4.70
2019-02-04T21:37:41.522Z,4.60
2019-02-04T21:40:07.808Z,4.50
2019-02-04T21:42:35.401Z,4.50
2019-02-04T21:45:03.786Z,4.40
2019-02-04T21:47:32.126Z,4.30
2019-02-04T21:50:00.184Z,4.30
2019-02-04T21:52:27.330Z,4.30
2019-02-04T21:54:54.910Z,4.20
2019-02-04T21:57:22.483Z,4.20
2019-02-04T21:59:50.118Z,4.20
2019-02-04T22:02:17.698Z,4.10
2019-02-04T22:04:45.292Z,4.30
2019-02-04T22:07:13.164Z,4.30
2019-02-04T22:09:40.739Z,4.40
2019-02-04T22:12:08.319Z,4.30
2019-02-04T22:14:35.930Z,4.30
2019-02-04T22:17:03.510Z,4.30
2019-02-04T22:19:31.853Z,4.30
2019-02-04T22:21:59.478Z,4.30
2019-02-04T22:24:27.053Z,4.40
2019-02-04T22:26:54.627Z,4.30
2019-02-04T22:29:22.241Z,4.30
2019-02-04T22:31:50.583Z,4.30
2019-02-04T22:34:18.167Z,4.30
2019-02-04T22:36:45.779Z,4.30
2019-02-04T22:39:13.353Z,4.30
2019-02-04T22:41:40.936Z,4.30
2019-02-04T22:44:08.585Z,4.30
2019-02-04T22:46:36.170Z,4.30
2019-02-04T22:49:03.738Z,4.40
2019-02-04T22:51:32.116Z,4.50
2019-02-04T22:54:00.468Z,4.50
2019-02-04T22:56:28.045Z,4.50
2019-02-04T22:58:55.660Z,4.40
2019-02-04T23:01:25.667Z,4.30
2019-02-04T23:03:53.251Z,4.30
2019-02-04T23:06:20.869Z,4.20
2019-02-04T23:08:49.222Z,4.20
2019-02-04T23:11:16.797Z,4.10
2019-02-04T23:13:44.437Z,4.10
2019-02-04T23:16:12.015Z,4.10
2019-02-04T23:18:39.628Z,4.10
2019-02-04T23:21:07.971Z,4.10
2019-02-04T23:23:36.317Z,4.10
2019-02-04T23:26:03.896Z,4.10
2019-02-04T23:28:31.512Z,4.10
2019-02-04T23:30:59.094Z,4.10
2019-02-04T23:33:33.935Z,4.20
2019-02-04T23:35:54.275Z,4.20
2019-02-04T23:38:21.852Z,4.10
2019-02-04T23:40:49.441Z,4.10
2019-02-04T23:43:17.053Z,4.00
2019-02-04T23:45:45.400Z,3.90
2019-02-04T23:48:13.353Z,3.90
2019-02-04T23:50:40.961Z,3.90
2019-02-04T23:53:09.310Z,3.80
2019-02-04T23:55:36.927Z,3.80
2019-02-04T23:58:05.265Z,3.80
